createdAt,value
2022-12-01T00:01:16.519Z,53.00
2022-12-01T00:03:43.809Z,46.05
2022-12-01T00:06:11.899Z,44.70
2022-12-01T00:08:39.270Z,48.80
2022-12-01T00:11:07.513Z,46.10
2022-12-01T00:13:35.177Z,50.10
2022-12-01T00:16:15.979Z,49.50
2022-12-01T00:18:43.458Z,51.65
2022-12-01T00:21:18.019Z,51.53
2022-12-01T00:23:49.282Z,47.27
2022-12-01T00:26:17.567Z,43.28
2022-12-01T00:28:44.809Z,46.13
2022-12-01T00:31:12.971Z,45.88
2022-12-01T00:33:40.383Z,48.22
2022-12-01T00:36:07.830Z,48.37
2022-12-01T00:38:35.329Z,48.95
2022-12-01T00:41:02.799Z,43.20
2022-12-01T00:43:30.323Z,52.78
2022-12-01T00:45:57.959Z,45.40
2022-12-01T00:48:25.202Z,48.70
2022-12-01T00:50:53.070Z,46.83
2022-12-01T00:53:20.805Z,50.58
2022-12-01T00:55:48.080Z,45.05
2022-12-01T00:58:15.167Z,41.33
2022-12-01T01:00:42.909Z,48.13
2022-12-01T01:03:10.712Z,50.05
2022-12-01T01:05:38.703Z,48.83
2022-12-01T01:08:10.415Z,51.10
2022-12-01T01:10:42.245Z,50.38
2022-12-01T01:13:09.875Z,55.07
2022-12-01T01:15:37.844Z,47.00
2022-12-01T01:18:05.909Z,54.47
2022-12-01T01:20:33.752Z,53.55
2022-12-01T01:23:01.470Z,48.45
2022-12-01T01:25:28.853Z,49.03
2022-12-01T01:27:56.283Z,52.65
2022-12-01T01:30:23.744Z,52.63
2022-12-01T01:32:51.218Z,46.85
2022-12-01T01:35:19.690Z,48.28
2022-12-01T01:37:47.125Z,53.53
2022-12-01T01:40:14.788Z,56.10
2022-12-01T01:42:42.202Z,56.58
2022-12-01T01:45:20.127Z,51.05
2022-12-01T01:47:48.294Z,58.53
2022-12-01T01:50:17.114Z,56.60
2022-12-01T01:52:46.624Z,54.80
2022-12-01T01:55:14.795Z,55.38
2022-12-01T01:57:42.813Z,50.88
2022-12-01T02:00:18.099Z,56.00
2022-12-01T02:02:51.442Z,51.20
2022-12-01T02:05:21.489Z,54.30
2022-12-01T02:07:50.122Z,52.30
2022-12-01T02:10:22.620Z,53.78
2022-12-01T02:12:49.949Z,60.63
2022-12-01T02:15:32.306Z,54.70
2022-12-01T02:18:11.246Z,56.60
2022-12-01T02:20:57.534Z,56.33
2022-12-01T02:23:43.554Z,53.60
2022-12-01T02:26:30.435Z,60.72
2022-12-01T02:29:12.596Z,48.30
2022-12-01T02:31:51.278Z,56.45
2022-12-01T02:34:31.498Z,54.10
2022-12-01T02:37:11.502Z,53.88
2022-12-01T02:39:46.347Z,51.72
2022-12-01T02:42:50.005Z,56.40
2022-12-01T02:45:44.029Z,50.67
2022-12-01T02:48:23.004Z,57.95
2022-12-01T02:51:11.537Z,53.95
2022-12-01T02:53:39.113Z,53.15
2022-12-01T02:56:08.516Z,54.03
2022-12-01T02:58:36.279Z,55.53
2022-12-01T03:01:22.873Z,50.42
2022-12-01T03:03:50.136Z,64.82
2022-12-01T03:06:31.889Z,57.38
2022-12-01T03:09:10.155Z,54.67
2022-12-01T03:11:47.225Z,53.92
2022-12-01T03:14:33.378Z,55.97
2022-12-01T03:17:04.961Z,53.67
2022-12-01T03:19:41.849Z,54.17
2022-12-01T03:22:31.065Z,55.27
2022-12-01T03:24:58.553Z,59.28
2022-12-01T03:27:28.561Z,52.08
2022-12-01T03:29:57.670Z,59.53
2022-12-01T03:32:38.336Z,57.20
2022-12-01T03:35:11.093Z,57.10
2022-12-01T03:37:38.198Z,54.65
2022-12-01T03:40:09.716Z,54.15
2022-12-01T03:42:40.550Z,60.78
2022-12-01T03:45:28.696Z,61.97
2022-12-01T03:47:55.830Z,51.17
2022-12-01T03:50:29.032Z,57.03
2022-12-01T03:53:07.545Z,50.72
2022-12-01T03:55:38.128Z,52.90
2022-12-01T03:58:09.006Z,57.10
2022-12-01T04:00:36.451Z,53.87
2022-12-01T04:03:04.278Z,53.80
2022-12-01T04:05:32.514Z,57.78
2022-12-01T04:07:59.871Z,53.53
2022-12-01T04:10:27.024Z,57.75
2022-12-01T04:12:59.427Z,52.20
2022-12-01T04:15:27.348Z,51.72
2022-12-01T04:17:55.109Z,50.08
2022-12-01T04:20:23.282Z,51.95
2022-12-01T04:22:51.250Z,51.78
2022-12-01T04:25:18.807Z,51.33
2022-12-01T04:27:46.406Z,58.88
2022-12-01T04:30:13.841Z,51.00
2022-12-01T04:32:43.811Z,51.17
2022-12-01T04:35:12.056Z,49.72
2022-12-01T04:37:39.804Z,59.77
2022-12-01T04:40:07.280Z,54.47
2022-12-01T04:42:34.504Z,48.72
2022-12-01T04:45:01.777Z,55.88
2022-12-01T04:47:29.133Z,56.05
2022-12-01T04:49:56.744Z,62.33
2022-12-01T04:52:24.070Z,61.67
2022-12-01T04:54:51.397Z,55.88
2022-12-01T04:57:18.759Z,52.15
2022-12-01T04:59:46.566Z,52.20
2022-12-01T05:02:14.201Z,57.07
2022-12-01T05:04:41.912Z,56.40
2022-12-01T05:07:09.404Z,54.08
2022-12-01T05:09:36.920Z,54.75
2022-12-01T05:12:05.335Z,59.70
2022-12-01T05:14:32.450Z,60.13
2022-12-01T05:17:00.575Z,56.08
2022-12-01T05:19:46.798Z,57.80
2022-12-01T05:22:14.696Z,47.92
2022-12-01T05:24:42.223Z,52.03
2022-12-01T05:27:09.984Z,52.67
2022-12-01T05:29:39.042Z,52.47
2022-12-01T05:32:06.601Z,58.83
2022-12-01T05:34:33.935Z,54.40
2022-12-01T05:37:01.344Z,57.85
2022-12-01T05:39:30.181Z,50.90
2022-12-01T05:41:58.338Z,52.58
2022-12-01T05:44:27.017Z,61.72
2022-12-01T05:46:54.333Z,53.97
2022-12-01T05:49:21.675Z,60.00
2022-12-01T05:51:49.086Z,61.73
2022-12-01T05:54:16.570Z,59.28
2022-12-01T05:56:45.255Z,58.63
2022-12-01T05:59:12.608Z,58.83
2022-12-01T06:01:39.982Z,48.92
2022-12-01T06:04:08.738Z,66.30
2022-12-01T06:06:35.910Z,61.15
2022-12-01T06:09:02.998Z,63.42
2022-12-01T06:11:30.094Z,60.42
2022-12-01T06:13:57.303Z,61.47
2022-12-01T06:16:24.682Z,64.40
2022-12-01T06:18:51.945Z,60.92
2022-12-01T06:21:19.355Z,60.88
2022-12-01T06:23:46.607Z,59.30
2022-12-01T06:26:14.105Z,59.45
2022-12-01T06:28:41.705Z,45.40
2022-12-01T06:31:09.283Z,55.45
2022-12-01T06:33:36.704Z,52.85
2022-12-01T06:36:05.782Z,58.83
2022-12-01T06:38:36.428Z,60.35
2022-12-01T06:41:04.407Z,52.53
2022-12-01T06:43:31.964Z,58.05
2022-12-01T06:46:02.042Z,52.38
2022-12-01T06:48:29.928Z,61.75
2022-12-01T06:51:00.940Z,55.63
2022-12-01T06:53:29.147Z,57.27
2022-12-01T06:56:03.872Z,55.80
2022-12-01T06:58:35.333Z,63.67
2022-12-01T07:01:10.528Z,58.45
2022-12-01T07:03:41.729Z,63.03
2022-12-01T07:06:09.385Z,64.37
2022-12-01T07:08:39.913Z,57.55
2022-12-01T07:11:08.382Z,61.45
2022-12-01T07:13:36.086Z,88.47
2022-12-01T07:16:03.651Z,66.18
2022-12-01T07:18:30.894Z,68.43
2022-12-01T07:21:07.128Z,71.57
2022-12-01T07:23:35.603Z,70.63
2022-12-01T07:26:04.239Z,78.05
2022-12-01T07:28:31.798Z,94.25
2022-12-01T07:31:06.812Z,131.00
2022-12-01T07:33:38.601Z,132.13
2022-12-01T07:36:07.641Z,169.93
2022-12-01T07:38:35.517Z,145.50
2022-12-01T07:41:16.494Z,161.27
2022-12-01T07:43:43.849Z,167.80
2022-12-01T07:46:20.607Z,229.80
2022-12-01T07:48:52.689Z,185.75
2022-12-01T07:51:20.180Z,212.70
2022-12-01T07:53:49.130Z,212.50
2022-12-01T07:56:16.667Z,228.70
2022-12-01T07:58:45.152Z,139.02
2022-12-01T08:01:18.618Z,201.05
2022-12-01T08:03:46.685Z,174.48
2022-12-01T08:06:15.190Z,156.30
2022-12-01T08:08:42.857Z,143.27
2022-12-01T08:11:22.970Z,174.35
2022-12-01T08:13:50.646Z,165.90
2022-12-01T08:16:19.735Z,117.68
2022-12-01T08:18:47.263Z,135.38
2022-12-01T08:21:16.284Z,123.27
2022-12-01T08:23:43.727Z,120.32
2022-12-01T08:26:19.269Z,109.22
2022-12-01T08:28:47.420Z,101.80
2022-12-01T08:31:15.481Z,95.88
2022-12-01T08:33:42.760Z,97.00
2022-12-01T08:36:10.333Z,94.68
2022-12-01T08:38:37.673Z,87.93
2022-12-01T08:41:06.182Z,85.40
2022-12-01T08:43:56.668Z,87.60
2022-12-01T08:46:21.510Z,78.63
2022-12-01T08:48:49.392Z,84.97
2022-12-01T08:51:18.740Z,101.47
2022-12-01T08:53:47.410Z,92.18
2022-12-01T08:56:16.441Z,92.28
2022-12-01T08:58:43.948Z,83.47
2022-12-01T09:01:12.191Z,79.07
2022-12-01T09:03:39.664Z,82.90
2022-12-01T09:06:08.304Z,84.22
2022-12-01T09:08:38.673Z,91.80
2022-12-01T09:11:08.417Z,91.23
2022-12-01T09:13:37.130Z,81.30
2022-12-01T09:16:06.776Z,87.13
2022-12-01T09:18:34.604Z,94.47
2022-12-01T09:21:11.547Z,94.63
2022-12-01T09:23:40.525Z,82.93
2022-12-01T09:26:13.421Z,87.82
2022-12-01T09:28:41.415Z,88.63
2022-12-01T09:31:10.295Z,86.38
2022-12-01T09:33:40.525Z,93.95
2022-12-01T09:36:09.472Z,81.63
2022-12-01T09:38:38.694Z,88.10
2022-12-01T09:41:07.666Z,80.72
2022-12-01T09:43:41.186Z,96.65
2022-12-01T09:46:10.957Z,82.13
2022-12-01T09:48:46.560Z,80.67
2022-12-01T09:51:18.524Z,81.03
2022-12-01T09:53:47.164Z,84.97
2022-12-01T09:56:28.031Z,83.75
2022-12-01T09:59:07.678Z,75.05
2022-12-01T10:01:39.157Z,83.03
2022-12-01T10:04:22.957Z,72.95
2022-12-01T10:06:56.089Z,72.20
2022-12-01T10:09:27.305Z,75.82
2022-12-01T10:12:02.632Z,77.13
2022-12-01T10:14:30.781Z,67.07
2022-12-01T10:17:01.117Z,67.68
2022-12-01T10:19:28.276Z,61.00
2022-12-01T10:21:58.730Z,62.55
2022-12-01T10:24:59.499Z,61.03
2022-12-01T10:27:46.062Z,60.53
2022-12-01T10:30:15.874Z,60.25
2022-12-01T10:32:54.486Z,54.97
2022-12-01T10:35:24.708Z,59.45
2022-12-01T10:37:55.539Z,58.60
2022-12-01T10:40:23.294Z,59.67
2022-12-01T10:42:51.430Z,53.15
2022-12-01T10:45:32.828Z,64.30
2022-12-01T10:48:17.140Z,59.50
2022-12-01T10:50:47.245Z,59.33
2022-12-01T10:53:25.962Z,56.23
2022-12-01T10:56:11.698Z,59.80
2022-12-01T10:58:50.915Z,54.20
2022-12-01T11:01:23.822Z,60.95
2022-12-01T11:03:55.452Z,53.50
2022-12-01T11:06:24.372Z,50.40
2022-12-01T11:08:53.401Z,55.13
2022-12-01T11:11:30.288Z,53.67
2022-12-01T11:13:58.687Z,50.40
2022-12-01T11:16:39.627Z,57.03
2022-12-01T11:19:33.123Z,53.80
2022-12-01T11:22:01.796Z,54.08
2022-12-01T11:24:31.067Z,54.10
2022-12-01T11:27:00.385Z,50.95
2022-12-01T11:29:36.677Z,54.13
2022-12-01T11:32:17.683Z,51.03
2022-12-01T11:34:50.222Z,50.83
2022-12-01T11:37:20.694Z,49.40
2022-12-01T11:39:48.858Z,49.83
2022-12-01T11:42:23.322Z,47.08
2022-12-01T11:44:57.600Z,51.37
2022-12-01T11:47:26.025Z,47.42
2022-12-01T11:49:55.216Z,46.97
2022-12-01T11:52:39.064Z,47.50
2022-12-01T11:55:12.307Z,48.28
2022-12-01T11:57:41.958Z,39.47
2022-12-01T12:00:15.995Z,42.13
2022-12-01T12:02:46.378Z,41.63
2022-12-01T12:05:13.545Z,38.85
2022-12-01T12:07:55.368Z,44.08
2022-12-01T12:10:22.864Z,37.53
2022-12-01T12:12:50.440Z,39.38
2022-12-01T12:15:28.387Z,40.47
2022-12-01T12:18:14.689Z,38.53
2022-12-01T12:21:00.975Z,37.78
2022-12-01T12:23:48.250Z,40.53
2022-12-01T12:26:21.529Z,37.85
2022-12-01T12:29:16.673Z,41.40
2022-12-01T12:31:56.600Z,43.78
2022-12-01T12:34:57.980Z,39.50
2022-12-01T12:37:47.018Z,42.60
2022-12-01T12:40:17.540Z,40.08
2022-12-01T12:42:49.761Z,38.90
2022-12-01T12:45:25.955Z,40.15
2022-12-01T12:48:05.114Z,39.33
2022-12-01T12:50:40.127Z,38.20
2022-12-01T12:53:13.260Z,39.83
2022-12-01T12:55:50.588Z,39.67
2022-12-01T12:58:23.722Z,41.17
2022-12-01T13:00:59.628Z,38.80
2022-12-01T13:03:39.644Z,38.13
2022-12-01T13:06:09.946Z,38.78
2022-12-01T13:08:40.684Z,36.10
2022-12-01T13:11:14.156Z,42.05
2022-12-01T13:13:47.228Z,39.80
2022-12-01T13:16:20.803Z,37.90
2022-12-01T13:19:03.257Z,39.33
2022-12-01T13:21:37.351Z,37.28
2022-12-01T13:24:06.089Z,36.88
2022-12-01T13:26:35.479Z,31.98
2022-12-01T13:29:05.537Z,34.10
2022-12-01T13:31:42.713Z,69.13
2022-12-01T13:34:18.401Z,37.90
2022-12-01T13:36:49.522Z,34.38
2022-12-01T13:39:23.347Z,42.55
2022-12-01T13:42:02.370Z,39.37
2022-12-01T13:44:33.108Z,38.47
2022-12-01T13:47:25.246Z,38.45
2022-12-01T13:49:58.306Z,40.30
2022-12-01T13:52:26.557Z,38.30
2022-12-01T13:55:02.219Z,36.87
2022-12-01T13:57:31.260Z,40.90
2022-12-01T14:00:02.345Z,36.88
2022-12-01T14:02:32.776Z,41.67
2022-12-01T14:05:19.935Z,43.30
2022-12-01T14:07:47.232Z,87.60
2022-12-01T14:10:20.987Z,49.75
2022-12-01T14:12:51.074Z,46.00
2022-12-01T14:15:24.412Z,40.30
2022-12-01T14:18:06.652Z,40.92
2022-12-01T14:20:36.313Z,40.17
2022-12-01T14:23:03.920Z,37.30
2022-12-01T14:25:35.792Z,40.72
2022-12-01T14:28:04.537Z,41.50
2022-12-01T14:30:47.127Z,38.63
2022-12-01T14:33:33.782Z,41.23
2022-12-01T14:36:01.579Z,36.85
2022-12-01T14:38:29.485Z,37.90
2022-12-01T14:40:57.150Z,37.28
2022-12-01T14:43:45.428Z,36.58
2022-12-01T14:46:16.857Z,41.20
2022-12-01T14:48:46.578Z,41.53
2022-12-01T14:51:24.052Z,39.58
2022-12-01T14:53:53.130Z,172.55
2022-12-01T14:56:22.389Z,108.85
2022-12-01T14:59:00.147Z,57.67
2022-12-01T15:01:32.925Z,42.20
2022-12-01T15:04:02.702Z,37.33
2022-12-01T15:06:36.643Z,38.97
2022-12-01T15:09:33.611Z,34.97
2022-12-01T15:12:03.845Z,38.47
2022-12-01T15:14:36.486Z,42.72
2022-12-01T15:17:05.451Z,39.28
2022-12-01T15:19:38.290Z,35.72
2022-12-01T15:22:13.739Z,33.63
2022-12-01T15:24:41.943Z,36.90
2022-12-01T15:27:31.599Z,38.63
2022-12-01T15:30:03.477Z,36.85
2022-12-01T15:32:43.387Z,43.33
2022-12-01T15:35:17.283Z,40.83
2022-12-01T15:37:45.174Z,37.90
2022-12-01T15:43:08.171Z,37.67
2022-12-01T15:45:54.496Z,51.40
2022-12-01T15:48:29.910Z,53.17
2022-12-01T15:51:03.480Z,44.10
2022-12-01T15:53:35.518Z,44.67
2022-12-01T15:56:06.078Z,43.33
2022-12-01T15:58:36.658Z,49.00
2022-12-01T16:01:11.174Z,43.05
2022-12-01T16:03:52.103Z,35.73
2022-12-01T16:06:20.301Z,40.00
2022-12-01T16:09:02.751Z,39.95
2022-12-01T16:11:31.844Z,34.95
2022-12-01T16:13:59.778Z,37.25
2022-12-01T16:16:36.724Z,39.83
2022-12-01T16:19:07.062Z,37.78
2022-12-01T16:21:55.806Z,43.45
2022-12-01T16:24:24.902Z,38.60
2022-12-01T16:26:56.747Z,38.97
2022-12-01T16:29:25.088Z,36.80
2022-12-01T16:32:18.680Z,35.88
2022-12-01T16:34:47.941Z,36.72
2022-12-01T16:37:17.226Z,37.45
2022-12-01T16:39:45.507Z,37.85
2022-12-01T16:42:17.545Z,41.63
2022-12-01T16:44:46.592Z,39.33
2022-12-01T16:47:22.105Z,39.40
2022-12-01T16:49:50.522Z,36.08
2022-12-01T16:55:20.501Z,36.03
2022-12-01T16:57:49.719Z,39.50
2022-12-01T17:00:18.290Z,38.33
2022-12-01T17:02:45.718Z,48.67
2022-12-01T17:05:13.081Z,47.60
2022-12-01T17:07:41.790Z,46.97
2022-12-01T17:10:09.196Z,48.58
2022-12-01T17:12:36.296Z,46.67
2022-12-01T17:15:03.946Z,47.03
2022-12-01T17:17:33.708Z,45.97
2022-12-01T17:20:00.840Z,49.23
2022-12-01T17:22:28.089Z,46.22
2022-12-01T17:24:55.566Z,45.35
2022-12-01T17:27:23.358Z,42.83
2022-12-01T17:29:50.513Z,46.65
2022-12-01T17:32:17.675Z,45.10
2022-12-01T17:34:44.759Z,56.88
2022-12-01T17:37:16.156Z,57.78
2022-12-01T17:39:50.450Z,49.10
2022-12-01T17:42:18.035Z,44.38
2022-12-01T17:44:45.378Z,47.90
2022-12-01T17:47:13.330Z,59.65
2022-12-01T17:49:40.610Z,64.35
2022-12-01T17:52:08.566Z,74.50
2022-12-01T17:54:35.808Z,50.97
2022-12-01T17:57:03.250Z,40.97
2022-12-01T17:59:30.390Z,86.28
2022-12-01T18:01:57.687Z,54.80
2022-12-01T18:04:25.123Z,50.42
2022-12-01T18:06:54.228Z,46.13
2022-12-01T18:09:21.782Z,51.50
2022-12-01T18:11:49.036Z,59.67
2022-12-01T18:14:17.845Z,58.83
2022-12-01T18:16:45.554Z,57.63
2022-12-01T18:19:12.920Z,58.05
2022-12-01T18:21:40.065Z,63.93
2022-12-01T18:24:09.028Z,54.40
2022-12-01T18:26:37.574Z,53.53
2022-12-01T18:29:09.753Z,46.95
2022-12-01T18:31:39.615Z,47.88
2022-12-01T18:34:08.015Z,49.23
2022-12-01T18:36:38.605Z,47.67
2022-12-01T18:39:08.796Z,45.40
2022-12-01T18:41:37.367Z,40.97
2022-12-01T18:44:08.227Z,42.33
2022-12-01T18:46:39.183Z,55.03
2022-12-01T18:49:16.220Z,50.03
2022-12-01T18:51:44.699Z,51.33
2022-12-01T18:54:13.214Z,46.17
2022-12-01T18:56:40.354Z,47.63
2022-12-01T18:59:08.920Z,45.53
2022-12-01T19:01:37.100Z,44.38
2022-12-01T19:04:05.215Z,71.43
2022-12-01T19:06:33.480Z,54.53
2022-12-01T19:09:01.751Z,44.17
2022-12-01T19:11:29.378Z,41.73
2022-12-01T19:13:57.545Z,46.47
2022-12-01T19:16:25.537Z,49.75
2022-12-01T19:19:06.572Z,49.65
2022-12-01T19:21:34.349Z,50.67
2022-12-01T19:24:01.948Z,46.87
2022-12-01T19:26:36.624Z,51.28
2022-12-01T19:29:03.960Z,45.22
2022-12-01T19:31:31.316Z,43.60
2022-12-01T19:33:58.821Z,46.47
2022-12-01T19:36:27.536Z,44.13
2022-12-01T19:39:04.318Z,48.63
2022-12-01T19:41:57.804Z,51.20
2022-12-01T19:44:26.104Z,46.63
2022-12-01T19:46:53.350Z,45.60
2022-12-01T19:49:21.602Z,41.60
2022-12-01T19:55:17.796Z,47.33
2022-12-01T19:58:20.645Z,46.45
2022-12-01T20:00:49.220Z,44.25
2022-12-01T20:03:16.536Z,51.30
2022-12-01T20:05:43.884Z,48.50
2022-12-01T20:08:13.785Z,50.80
2022-12-01T20:10:50.363Z,51.22
2022-12-01T20:13:17.783Z,51.08
2022-12-01T20:15:45.097Z,53.77
2022-12-01T20:18:14.843Z,59.47
2022-12-01T20:20:41.967Z,58.72
2022-12-01T20:27:15.122Z,57.53
2022-12-01T20:29:42.487Z,53.63
2022-12-01T20:32:09.795Z,63.80
2022-12-01T20:34:38.239Z,63.30
2022-12-01T20:37:05.466Z,63.78
2022-12-01T20:39:35.229Z,62.38
2022-12-01T20:42:02.430Z,70.03
2022-12-01T20:44:29.823Z,64.45
2022-12-01T20:46:57.678Z,66.30
2022-12-01T20:49:47.824Z,66.07
2022-12-01T20:52:15.086Z,62.42
2022-12-01T20:54:42.552Z,64.13
2022-12-01T20:57:09.841Z,55.58
2022-12-01T20:59:37.310Z,55.58
2022-12-01T21:02:04.817Z,53.22
2022-12-01T21:04:33.294Z,57.55
2022-12-01T21:07:00.658Z,52.97
2022-12-01T21:09:27.868Z,59.50
2022-12-01T21:12:15.205Z,56.55
2022-12-01T21:15:02.731Z,52.10
2022-12-01T21:17:35.368Z,70.90
2022-12-01T21:20:08.893Z,63.13
2022-12-01T21:22:36.867Z,61.80
2022-12-01T21:25:15.807Z,56.97
2022-12-01T21:27:42.963Z,61.83
2022-12-01T21:30:21.138Z,65.00
2022-12-01T21:32:50.459Z,63.87
2022-12-01T21:35:25.154Z,59.35
2022-12-01T21:37:59.080Z,55.42
2022-12-01T21:40:27.163Z,57.42
2022-12-01T21:42:54.380Z,60.33
2022-12-01T21:45:32.973Z,59.07
2022-12-01T21:48:17.974Z,61.90
2022-12-01T21:50:50.910Z,58.60
2022-12-01T21:53:21.166Z,57.97
2022-12-01T21:55:49.290Z,72.45
2022-12-01T22:01:45.471Z,62.03
2022-12-01T22:04:49.406Z,63.03
2022-12-01T22:07:16.703Z,61.83
2022-12-01T22:09:43.790Z,55.67
2022-12-01T22:12:10.924Z,56.17
2022-12-01T22:14:38.055Z,53.97
2022-12-01T22:17:08.939Z,57.38
2022-12-01T22:19:45.673Z,58.60
2022-12-01T22:22:12.891Z,56.03
2022-12-01T22:24:41.539Z,55.27
2022-12-01T22:27:28.147Z,49.65
2022-12-01T22:30:25.697Z,50.88
2022-12-01T22:32:53.250Z,55.35
2022-12-01T22:35:28.420Z,60.95
2022-12-01T22:38:00.095Z,54.30
2022-12-01T22:40:37.638Z,51.88
2022-12-01T22:43:17.617Z,57.45
2022-12-01T22:45:46.257Z,57.75
2022-12-01T22:48:37.324Z,50.20
2022-12-01T22:51:25.338Z,59.80
2022-12-01T22:53:54.969Z,58.45
2022-12-01T22:56:27.365Z,57.15
2022-12-01T22:58:56.083Z,47.05
2022-12-01T23:01:27.451Z,55.50
2022-12-01T23:04:05.983Z,61.10
2022-12-01T23:06:52.906Z,61.22
2022-12-01T23:09:21.454Z,55.97
2022-12-01T23:12:05.632Z,52.78
2022-12-01T23:14:34.932Z,61.42
